createdAt,value
2022-12-12T00:01:50.520Z,12.97
2022-12-12T00:04:17.155Z,13.50
2022-12-12T00:06:44.407Z,12.70
2022-12-12T00:09:11.547Z,12.67
2022-12-12T00:11:38.237Z,13.23
2022-12-12T00:14:05.302Z,13.10
2022-12-12T00:16:32.243Z,12.70
2022-12-12T00:18:58.940Z,13.07
2022-12-12T00:21:28.203Z,13.83
2022-12-12T00:23:56.234Z,12.93
2022-12-12T00:26:25.657Z,12.40
2022-12-12T00:28:53.169Z,13.03
2022-12-12T00:31:20.231Z,12.77
2022-12-12T00:33:49.928Z,12.73
2022-12-12T00:36:19.650Z,12.80
2022-12-12T00:38:46.250Z,13.13
2022-12-12T00:41:13.086Z,12.80
2022-12-12T00:43:39.702Z,12.83
2022-12-12T00:46:06.606Z,12.87
2022-12-12T00:48:33.695Z,12.03
2022-12-12T00:51:09.811Z,12.93
2022-12-12T00:53:38.260Z,13.57
2022-12-12T00:56:05.836Z,14.00
2022-12-12T00:58:32.943Z,15.23
2022-12-12T01:01:06.427Z,16.37
2022-12-12T01:03:34.326Z,16.10
2022-12-12T01:06:00.916Z,16.73
2022-12-12T01:08:28.055Z,15.67
2022-12-12T01:10:55.300Z,14.37
2022-12-12T01:13:22.138Z,14.03
2022-12-12T01:15:49.034Z,13.33
2022-12-12T01:18:16.726Z,13.70
2022-12-12T01:20:43.799Z,12.33
2022-12-12T01:23:10.884Z,12.07
2022-12-12T01:25:37.518Z,13.47
2022-12-12T01:28:04.622Z,12.03
2022-12-12T01:30:31.266Z,11.93
2022-12-12T01:32:57.827Z,13.33
2022-12-12T01:35:24.612Z,12.93
2022-12-12T01:37:51.483Z,13.47
2022-12-12T01:40:23.509Z,13.53
2022-12-12T01:42:50.914Z,13.77
2022-12-12T01:45:55.380Z,14.40
2022-12-12T01:48:26.535Z,14.30
2022-12-12T01:50:54.171Z,14.93
2022-12-12T01:53:21.157Z,14.97
2022-12-12T01:55:49.353Z,16.03
2022-12-12T01:58:16.885Z,18.57
2022-12-12T02:00:43.844Z,15.70
2022-12-12T02:03:10.645Z,14.30
2022-12-12T02:05:46.765Z,12.90
2022-12-12T02:08:14.578Z,13.27
2022-12-12T02:10:41.136Z,14.07
2022-12-12T02:13:16.021Z,12.03
2022-12-12T02:16:05.238Z,12.67
2022-12-12T02:18:50.126Z,14.20
2022-12-12T02:21:54.633Z,13.67
2022-12-12T02:24:51.367Z,13.33
2022-12-12T02:27:55.122Z,14.33
2022-12-12T02:30:42.050Z,13.07
2022-12-12T02:33:24.575Z,13.73
2022-12-12T02:36:16.169Z,14.57
2022-12-12T02:38:52.621Z,13.07
2022-12-12T02:41:28.382Z,12.47
2022-12-12T02:44:26.284Z,12.77
2022-12-12T02:47:01.914Z,13.30
2022-12-12T02:49:36.144Z,12.80
2022-12-12T02:52:03.823Z,12.40
2022-12-12T02:54:30.364Z,12.70
2022-12-12T02:56:58.847Z,12.53
2022-12-12T02:59:33.987Z,12.23
2022-12-12T03:02:15.915Z,12.07
2022-12-12T03:05:19.742Z,12.67
2022-12-12T03:08:17.645Z,12.13
2022-12-12T03:10:47.303Z,12.30
2022-12-12T03:13:31.202Z,11.77
2022-12-12T03:16:12.907Z,12.10
2022-12-12T03:18:57.276Z,12.10
2022-12-12T03:22:01.814Z,12.90
2022-12-12T03:24:34.409Z,13.50
2022-12-12T03:27:09.430Z,11.47
2022-12-12T03:29:48.660Z,12.43
2022-12-12T03:32:25.598Z,12.03
2022-12-12T03:35:06.699Z,12.37
2022-12-12T03:37:40.652Z,11.10
2022-12-12T03:40:13.734Z,11.33
2022-12-12T03:42:54.808Z,10.40
2022-12-12T03:45:30.133Z,10.93
2022-12-12T03:48:13.490Z,10.27
2022-12-12T03:50:50.609Z,10.50
2022-12-12T03:53:26.647Z,10.17
2022-12-12T03:55:56.500Z,10.13
2022-12-12T03:58:53.685Z,10.37
2022-12-12T04:01:25.279Z,10.30
2022-12-12T04:04:02.982Z,10.40
2022-12-12T04:06:45.736Z,10.50
2022-12-12T04:09:34.198Z,9.53
2022-12-12T04:12:45.744Z,10.40
2022-12-12T04:15:27.444Z,9.17
2022-12-12T04:18:14.689Z,9.97
2022-12-12T04:21:38.063Z,9.30
2022-12-12T04:24:23.132Z,10.10
2022-12-12T04:27:03.978Z,9.87
2022-12-12T04:30:02.134Z,10.00
2022-12-12T04:32:32.659Z,9.13
2022-12-12T04:35:04.858Z,9.20
2022-12-12T04:37:39.467Z,8.83
2022-12-12T04:40:09.848Z,9.37
2022-12-12T04:42:42.051Z,9.67
2022-12-12T04:45:15.344Z,9.00
2022-12-12T04:47:44.814Z,9.10
2022-12-12T04:50:12.887Z,8.93
2022-12-12T04:52:41.251Z,9.23
2022-12-12T04:55:46.409Z,8.87
2022-12-12T04:58:13.619Z,8.70
2022-12-12T05:01:06.349Z,8.67
2022-12-12T05:03:49.280Z,8.23
2022-12-12T05:06:27.249Z,8.27
2022-12-12T05:08:56.393Z,7.40
2022-12-12T05:11:23.667Z,7.50
2022-12-12T05:13:50.534Z,7.70
2022-12-12T05:16:32.543Z,7.30
2022-12-12T05:19:00.165Z,7.40
2022-12-12T05:21:27.459Z,6.93
2022-12-12T05:23:56.815Z,6.67
2022-12-12T05:26:26.075Z,6.47
2022-12-12T05:28:53.186Z,6.17
2022-12-12T05:31:20.571Z,6.43
2022-12-12T05:33:47.754Z,6.80
2022-12-12T05:36:14.963Z,6.57
2022-12-12T05:38:42.276Z,6.23
2022-12-12T05:41:09.877Z,6.47
2022-12-12T05:43:36.749Z,5.97
2022-12-12T05:46:04.751Z,5.90
2022-12-12T05:48:31.465Z,5.50
2022-12-12T05:51:00.587Z,6.07
2022-12-12T05:53:27.335Z,5.73
2022-12-12T05:55:53.901Z,5.60
2022-12-12T05:58:20.595Z,5.67
2022-12-12T06:00:48.950Z,4.93
2022-12-12T06:03:16.212Z,5.03
2022-12-12T06:05:42.814Z,5.03
2022-12-12T06:08:09.812Z,4.90
2022-12-12T06:10:36.505Z,5.30
2022-12-12T06:13:04.360Z,5.17
2022-12-12T06:15:31.067Z,4.60
2022-12-12T06:17:58.532Z,4.90
2022-12-12T06:20:25.276Z,4.90
2022-12-12T06:22:53.820Z,4.47
2022-12-12T06:25:20.767Z,4.80
2022-12-12T06:27:47.469Z,4.83
2022-12-12T06:30:14.442Z,4.43
2022-12-12T06:32:41.211Z,4.57
2022-12-12T06:35:08.324Z,4.43
2022-12-12T06:37:35.138Z,4.23
2022-12-12T06:40:01.779Z,4.57
2022-12-12T06:42:28.398Z,4.20
2022-12-12T06:44:55.003Z,3.77
2022-12-12T06:47:21.600Z,4.57
2022-12-12T06:49:48.344Z,4.10
2022-12-12T06:52:15.030Z,4.33
2022-12-12T06:54:41.690Z,4.23
2022-12-12T06:57:08.254Z,4.23
2022-12-12T06:59:34.811Z,4.00
2022-12-12T07:02:01.483Z,4.20
2022-12-12T07:04:28.164Z,3.90
2022-12-12T07:06:54.817Z,4.07
2022-12-12T07:09:21.474Z,4.73
2022-12-12T07:11:48.022Z,4.03
2022-12-12T07:14:14.650Z,4.07
2022-12-12T07:16:41.216Z,4.03
2022-12-12T07:19:07.797Z,4.53
2022-12-12T07:21:34.425Z,4.63
2022-12-12T07:24:01.064Z,4.80
2022-12-12T07:26:27.646Z,3.97
2022-12-12T07:28:54.216Z,4.90
2022-12-12T07:31:22.741Z,4.57
2022-12-12T07:33:49.375Z,4.43
2022-12-12T07:36:16.393Z,4.53
2022-12-12T07:38:43.810Z,4.50
2022-12-12T07:41:13.494Z,4.60
2022-12-12T07:43:44.192Z,4.30
2022-12-12T07:46:20.335Z,4.43
2022-12-12T07:48:47.319Z,4.30
2022-12-12T07:51:14.959Z,4.20
2022-12-12T07:53:41.585Z,4.13
2022-12-12T07:56:10.008Z,4.50
2022-12-12T07:58:37.135Z,4.20
2022-12-12T08:01:21.920Z,4.33
2022-12-12T08:03:49.159Z,4.10
2022-12-12T08:06:16.785Z,4.47
2022-12-12T08:08:44.855Z,4.17
2022-12-12T08:11:13.896Z,3.97
2022-12-12T08:13:41.207Z,4.13
2022-12-12T08:16:14.227Z,4.10
2022-12-12T08:18:40.855Z,3.77
2022-12-12T08:21:09.141Z,4.20
2022-12-12T08:23:35.745Z,4.10
2022-12-12T08:26:11.619Z,4.63
2022-12-12T08:28:38.920Z,4.57
2022-12-12T08:31:05.537Z,4.40
2022-12-12T08:33:32.103Z,4.37
2022-12-12T08:35:58.748Z,4.00
2022-12-12T08:38:25.338Z,4.37
2022-12-12T08:40:52.000Z,3.97
2022-12-12T08:43:24.506Z,3.97
2022-12-12T08:45:51.049Z,4.10
2022-12-12T08:48:17.793Z,4.10
2022-12-12T08:50:44.332Z,3.93
2022-12-12T08:53:10.934Z,4.00
2022-12-12T08:55:37.492Z,3.73
2022-12-12T08:58:04.117Z,3.70
2022-12-12T09:00:30.753Z,3.67
2022-12-12T09:02:57.650Z,4.00
2022-12-12T09:05:24.337Z,3.43
2022-12-12T09:07:51.198Z,3.70
2022-12-12T09:10:17.925Z,3.67
2022-12-12T09:12:44.585Z,3.93
2022-12-12T09:15:12.023Z,3.83
2022-12-12T09:17:38.879Z,3.63
2022-12-12T09:20:06.281Z,4.07
2022-12-12T09:22:33.024Z,3.80
2022-12-12T09:25:00.196Z,4.40
2022-12-12T09:27:26.946Z,3.80
2022-12-12T09:29:53.501Z,3.37
2022-12-12T09:32:24.641Z,3.47
2022-12-12T09:34:51.782Z,3.57
2022-12-12T09:37:18.365Z,3.53
2022-12-12T09:39:45.009Z,3.60
2022-12-12T09:42:24.976Z,3.20
2022-12-12T09:44:55.569Z,3.80
2022-12-12T09:47:36.805Z,3.63
2022-12-12T09:50:24.416Z,3.77
2022-12-12T09:52:53.721Z,3.30
2022-12-12T09:55:20.258Z,3.93
2022-12-12T09:57:59.806Z,3.77
2022-12-12T10:00:27.190Z,3.50
2022-12-12T10:03:15.163Z,3.47
2022-12-12T10:09:23.687Z,3.27
2022-12-12T10:11:51.965Z,3.47
2022-12-12T10:14:34.656Z,3.60
2022-12-12T10:17:05.390Z,3.57
2022-12-12T10:19:35.571Z,3.60
2022-12-12T10:22:15.145Z,3.10
2022-12-12T10:24:57.979Z,3.30
2022-12-12T10:27:25.151Z,2.77
2022-12-12T10:29:53.203Z,3.00
2022-12-12T10:32:45.895Z,3.00
2022-12-12T10:35:26.750Z,2.70
2022-12-12T10:38:27.312Z,3.20
2022-12-12T10:41:03.316Z,2.97
2022-12-12T10:43:40.685Z,2.77
2022-12-12T10:46:16.824Z,2.50
2022-12-12T10:48:45.659Z,2.43
2022-12-12T10:51:15.214Z,2.63
2022-12-12T10:53:42.600Z,2.90
2022-12-12T10:56:12.368Z,2.60
2022-12-12T10:58:44.737Z,2.97
2022-12-12T11:01:52.203Z,3.10
2022-12-12T11:04:14.813Z,2.70
2022-12-12T11:06:48.510Z,2.73
2022-12-12T11:09:19.848Z,2.50
2022-12-12T11:12:01.854Z,2.50
2022-12-12T11:14:50.054Z,2.53
2022-12-12T11:17:22.297Z,2.50
2022-12-12T11:19:49.431Z,3.07
2022-12-12T11:22:16.288Z,3.00
2022-12-12T11:24:46.677Z,3.20
2022-12-12T11:27:22.269Z,3.07
2022-12-12T11:29:51.509Z,3.00
2022-12-12T11:32:25.990Z,2.97
2022-12-12T11:35:00.286Z,3.07
2022-12-12T11:37:37.016Z,3.20
2022-12-12T11:40:04.544Z,3.07
2022-12-12T11:42:34.301Z,3.20
2022-12-12T11:45:22.750Z,3.17
2022-12-12T11:47:50.078Z,2.90
2022-12-12T11:50:20.942Z,3.20
2022-12-12T11:52:48.997Z,3.53
2022-12-12T11:55:19.647Z,3.60
2022-12-12T11:58:17.298Z,3.50
2022-12-12T12:00:58.828Z,3.80
2022-12-12T12:03:56.359Z,3.50
2022-12-12T12:06:30.888Z,3.53
2022-12-12T12:09:25.899Z,4.27
2022-12-12T12:12:03.690Z,4.03
2022-12-12T12:15:07.274Z,4.30
2022-12-12T12:18:01.341Z,4.93
2022-12-12T12:20:52.841Z,4.20
2022-12-12T12:23:42.610Z,4.23
2022-12-12T12:26:29.639Z,4.40
2022-12-12T12:29:08.965Z,3.67
2022-12-12T12:31:47.374Z,4.00
2022-12-12T12:34:28.851Z,4.90
2022-12-12T12:37:17.671Z,3.53
2022-12-12T12:40:22.845Z,3.50
2022-12-12T12:43:17.074Z,3.03
2022-12-12T12:45:57.603Z,2.93
2022-12-12T12:48:39.258Z,3.00
2022-12-12T12:51:31.383Z,3.40
2022-12-12T12:54:06.001Z,3.27
2022-12-12T12:56:43.432Z,3.00
2022-12-12T12:59:16.012Z,3.00
2022-12-12T13:01:52.395Z,3.20
2022-12-12T13:04:31.387Z,3.03
2022-12-12T13:07:04.717Z,3.17
2022-12-12T13:09:43.975Z,2.80
2022-12-12T13:12:35.580Z,2.40
2022-12-12T13:15:13.819Z,2.90
2022-12-12T13:17:54.997Z,3.00
2022-12-12T13:20:25.382Z,3.30
2022-12-12T13:23:00.143Z,3.20
2022-12-12T13:25:48.976Z,2.77
2022-12-12T13:28:20.896Z,3.13
2022-12-12T13:31:24.733Z,3.00
2022-12-12T13:34:01.664Z,3.30
2022-12-12T13:36:32.789Z,3.37
2022-12-12T13:39:02.405Z,2.80
2022-12-12T13:41:56.753Z,3.00
2022-12-12T13:44:49.439Z,3.00
2022-12-12T13:47:22.172Z,2.87
2022-12-12T13:49:58.362Z,3.00
2022-12-12T13:52:31.532Z,3.70
2022-12-12T13:55:20.295Z,3.50
2022-12-12T13:57:59.060Z,4.90
2022-12-12T14:00:30.768Z,3.40
2022-12-12T14:03:02.308Z,3.70
2022-12-12T14:05:42.084Z,4.47
2022-12-12T14:08:11.963Z,4.27
2022-12-12T14:10:52.346Z,3.77
2022-12-12T14:13:28.268Z,3.70
2022-12-12T14:15:57.867Z,4.10
2022-12-12T14:18:30.670Z,3.63
2022-12-12T14:21:07.091Z,4.10
2022-12-12T14:23:53.981Z,3.73
2022-12-12T14:26:29.489Z,3.60
2022-12-12T14:29:17.944Z,4.40
2022-12-12T14:31:55.930Z,4.73
2022-12-12T14:35:00.354Z,5.20
2022-12-12T14:37:58.056Z,5.47
2022-12-12T14:40:32.301Z,4.40
2022-12-12T14:43:21.232Z,5.00
2022-12-12T14:45:57.598Z,4.90
2022-12-12T14:48:27.270Z,4.57
2022-12-12T14:51:00.044Z,5.27
2022-12-12T14:53:38.712Z,5.63
2022-12-12T14:56:17.476Z,6.07
2022-12-12T14:59:04.309Z,6.53
2022-12-12T15:01:40.149Z,6.63
2022-12-12T15:04:14.130Z,7.37
2022-12-12T15:06:44.517Z,6.93
2022-12-12T15:09:24.924Z,6.80
2022-12-12T15:11:54.183Z,7.30
2022-12-12T15:14:26.250Z,7.90
2022-12-12T15:17:16.026Z,6.83
2022-12-12T15:19:47.456Z,7.77
2022-12-12T15:22:24.929Z,6.90
2022-12-12T15:24:53.231Z,6.93
2022-12-12T15:27:47.056Z,7.17
2022-12-12T15:30:39.456Z,7.13
2022-12-12T15:33:14.635Z,7.03
2022-12-12T15:36:02.190Z,6.67
2022-12-12T15:38:29.824Z,6.00
2022-12-12T15:41:00.903Z,5.87
2022-12-12T15:43:29.706Z,6.07
2022-12-12T15:46:13.910Z,6.57
2022-12-12T15:48:45.326Z,6.33
2022-12-12T15:51:13.199Z,6.13
2022-12-12T15:53:45.958Z,6.07
2022-12-12T15:56:24.478Z,5.83
2022-12-12T15:58:56.855Z,6.30
2022-12-12T16:01:29.188Z,5.87
2022-12-12T16:04:11.307Z,5.27
2022-12-12T16:06:40.555Z,6.00
2022-12-12T16:09:07.078Z,5.63
2022-12-12T16:11:47.841Z,5.80
2022-12-12T16:14:40.194Z,5.57
2022-12-12T16:17:18.546Z,5.90
2022-12-12T16:19:55.931Z,5.47
2022-12-12T16:22:39.990Z,5.60
2022-12-12T16:25:15.847Z,5.13
2022-12-12T16:27:43.918Z,5.30
2022-12-12T16:30:15.612Z,5.50
2022-12-12T16:32:43.436Z,5.87
2022-12-12T16:35:18.641Z,5.67
2022-12-12T16:37:45.602Z,5.90
2022-12-12T16:40:17.613Z,5.93
2022-12-12T16:43:00.120Z,5.63
2022-12-12T16:45:26.806Z,5.30
2022-12-12T16:47:53.487Z,5.30
2022-12-12T16:50:20.085Z,5.67
2022-12-12T16:52:46.605Z,5.47
2022-12-12T16:55:19.280Z,5.50
2022-12-12T16:57:46.216Z,5.67
2022-12-12T17:00:13.761Z,5.47
2022-12-12T17:02:40.652Z,5.40
2022-12-12T17:05:12.813Z,6.20
2022-12-12T17:07:39.729Z,6.07
2022-12-12T17:10:06.869Z,5.47
2022-12-12T17:12:33.403Z,5.80
2022-12-12T17:14:59.940Z,5.80
2022-12-12T17:17:26.495Z,5.80
2022-12-12T17:19:53.113Z,5.40
2022-12-12T17:22:19.653Z,5.57
2022-12-12T17:24:46.185Z,5.60
2022-12-12T17:27:12.831Z,5.17
2022-12-12T17:29:39.592Z,5.50
2022-12-12T17:32:06.225Z,12.93
2022-12-12T17:34:32.874Z,5.40
2022-12-12T17:36:59.556Z,4.80
2022-12-12T17:39:26.220Z,5.00
2022-12-12T17:41:52.785Z,4.60
2022-12-12T17:44:19.375Z,4.83
2022-12-12T17:46:45.990Z,5.00
2022-12-12T17:49:12.670Z,5.10
2022-12-12T17:51:39.247Z,4.80
2022-12-12T17:54:05.815Z,6.13
2022-12-12T17:56:32.462Z,5.10
2022-12-12T17:58:59.215Z,4.80
2022-12-12T18:01:29.026Z,8.17
2022-12-12T18:03:56.194Z,4.97
2022-12-12T18:06:24.044Z,4.20
2022-12-12T18:08:51.025Z,3.73
2022-12-12T18:11:24.380Z,4.60
2022-12-12T18:13:52.958Z,3.27
2022-12-12T18:16:20.355Z,3.43
2022-12-12T18:18:47.570Z,3.20
2022-12-12T18:21:35.846Z,3.93
2022-12-12T18:24:03.607Z,5.27
2022-12-12T18:26:30.199Z,3.97
2022-12-12T18:28:59.536Z,3.30
2022-12-12T18:31:26.419Z,3.40
2022-12-12T18:33:53.429Z,3.77
2022-12-12T18:36:22.946Z,2.90
2022-12-12T18:38:49.951Z,3.00
2022-12-12T18:41:17.316Z,2.80
2022-12-12T18:43:44.262Z,3.30
2022-12-12T18:46:13.844Z,3.20
2022-12-12T18:48:42.399Z,2.60
2022-12-12T18:51:14.223Z,3.00
2022-12-12T18:53:41.320Z,2.93
2022-12-12T18:56:20.054Z,2.70
2022-12-12T18:58:47.376Z,2.50
2022-12-12T19:01:20.817Z,2.90
2022-12-12T19:03:50.204Z,2.80
2022-12-12T19:06:20.443Z,2.70
2022-12-12T19:08:47.417Z,3.00
2022-12-12T19:11:14.411Z,2.70
2022-12-12T19:13:42.877Z,2.70
2022-12-12T19:16:16.632Z,3.10
2022-12-12T19:18:43.839Z,3.10
2022-12-12T19:21:19.846Z,3.30
2022-12-12T19:23:47.364Z,2.70
2022-12-12T19:26:17.595Z,3.03
2022-12-12T19:28:44.522Z,3.10
2022-12-12T19:31:14.714Z,3.23
2022-12-12T19:33:42.304Z,4.03
2022-12-12T19:36:14.962Z,3.60
2022-12-12T19:38:42.335Z,3.53
2022-12-12T19:41:10.103Z,4.03
2022-12-12T19:43:37.168Z,4.10
2022-12-12T19:46:13.162Z,4.27
2022-12-12T19:48:40.122Z,4.63
2022-12-12T19:51:13.559Z,4.70
2022-12-12T19:53:43.751Z,4.67
2022-12-12T19:56:16.021Z,5.10
2022-12-12T19:58:42.897Z,4.90
2022-12-12T20:01:15.658Z,4.20
2022-12-12T20:03:42.556Z,5.93
2022-12-12T20:06:10.932Z,5.40
2022-12-12T20:08:38.254Z,5.33
2022-12-12T20:11:07.365Z,5.10
2022-12-12T20:13:34.267Z,5.20
2022-12-12T20:16:05.900Z,4.90
2022-12-12T20:18:32.743Z,4.90
2022-12-12T20:21:02.007Z,4.87
2022-12-12T20:23:33.278Z,4.80
2022-12-12T20:26:03.751Z,4.87
2022-12-12T20:28:32.018Z,4.93
2022-12-12T20:31:16.787Z,4.33
2022-12-12T20:33:43.955Z,5.03
2022-12-12T20:36:15.474Z,4.60
2022-12-12T20:38:42.889Z,4.77
2022-12-12T20:41:18.010Z,5.13
2022-12-12T20:43:45.551Z,4.77
2022-12-12T20:46:23.654Z,5.00
2022-12-12T20:48:51.078Z,6.23
2022-12-12T20:51:52.829Z,6.27
2022-12-12T20:54:07.418Z,7.13
2022-12-12T20:56:34.722Z,7.70
2022-12-12T20:59:03.309Z,7.60
2022-12-12T21:01:32.644Z,8.80
2022-12-12T21:04:00.642Z,9.07
2022-12-12T21:06:32.824Z,10.37
2022-12-12T21:09:05.063Z,10.30
2022-12-12T21:11:31.935Z,10.03
2022-12-12T21:13:58.836Z,10.07
2022-12-12T21:16:31.116Z,10.23
2022-12-12T21:19:01.666Z,10.53
2022-12-12T21:21:29.436Z,11.50
2022-12-12T21:23:56.945Z,10.87
2022-12-12T21:26:29.022Z,9.37
2022-12-12T21:28:56.432Z,11.27
2022-12-12T21:31:29.090Z,11.03
2022-12-12T21:33:56.758Z,9.83
2022-12-12T21:36:24.380Z,9.77
2022-12-12T21:38:52.155Z,9.23
2022-12-12T21:41:21.246Z,9.20
2022-12-12T21:43:48.531Z,9.47
2022-12-12T21:46:20.681Z,8.63
2022-12-12T21:49:07.885Z,9.27
2022-12-12T21:51:35.321Z,8.97
2022-12-12T21:54:03.625Z,7.50
2022-12-12T21:56:30.560Z,6.43
2022-12-12T21:58:58.402Z,6.53
2022-12-12T22:01:25.166Z,6.50
2022-12-12T22:03:51.847Z,5.47
2022-12-12T22:06:24.112Z,6.50
2022-12-12T22:08:51.617Z,6.30
2022-12-12T22:11:34.380Z,6.10
2022-12-12T22:14:07.113Z,6.50
2022-12-12T22:16:34.035Z,6.10
2022-12-12T22:19:05.845Z,6.47
2022-12-12T22:21:33.467Z,6.00
2022-12-12T22:24:01.051Z,6.70
2022-12-12T22:26:30.066Z,7.10
2022-12-12T22:29:02.271Z,7.23
2022-12-12T22:31:32.240Z,6.80
2022-12-12T22:34:04.430Z,6.53
2022-12-12T22:36:33.663Z,6.20
2022-12-12T22:39:01.282Z,6.40
2022-12-12T22:41:29.294Z,5.67
2022-12-12T22:43:58.189Z,5.40
2022-12-12T22:46:26.287Z,6.50
2022-12-12T22:48:54.466Z,6.20
2022-12-12T22:51:23.630Z,6.47
2022-12-12T22:53:50.368Z,6.33
2022-12-12T22:56:17.702Z,6.60
2022-12-12T22:58:44.305Z,6.97
2022-12-12T23:01:13.976Z,6.57
2022-12-12T23:03:41.324Z,7.10
2022-12-12T23:06:13.871Z,7.27
2022-12-12T23:08:41.565Z,7.57
2022-12-12T23:11:14.515Z,7.30
2022-12-12T23:13:44.703Z,7.63
2022-12-12T23:16:19.467Z,7.53
2022-12-12T23:18:47.485Z,7.33
2022-12-12T23:21:18.028Z,7.37
2022-12-12T23:23:45.797Z,7.30
2022-12-12T23:26:15.123Z,7.23
2022-12-12T23:28:42.269Z,7.47
2022-12-12T23:31:18.677Z,7.57
2022-12-12T23:33:46.197Z,7.00
2022-12-12T23:36:15.091Z,7.70
2022-12-12T23:38:42.452Z,8.07
2022-12-12T23:41:16.269Z,7.23
2022-12-12T23:43:43.171Z,7.43
2022-12-12T23:46:33.535Z,6.80
2022-12-12T23:49:01.749Z,7.27
2022-12-12T23:51:30.714Z,7.60
2022-12-12T23:54:02.137Z,6.83
2022-12-12T23:56:30.522Z,7.33
2022-12-12T23:58:58.901Z,7.53
